sensor_id;sensor_type;location;lat;lon;timestamp;P1;durP1;ratioP1;P2;durP2;ratioP2
66353;SDS011;53150;48.296;16.452;2023-03-14T00:02:25;6.45;;;3.40;;
66353;SDS011;53150;48.296;16.452;2023-03-14T00:04:53;6.75;;;3.40;;
66353;SDS011;53150;48.296;16.452;2023-03-14T00:07:20;6.70;;;4.07;;
66353;SDS011;53150;48.296;16.452;2023-03-14T00:09:49;8.63;;;3.70;;
66353;SDS011;53150;48.296;16.452;2023-03-14T00:12:15;7.78;;;3.80;;
66353;SDS011;53150;48.296;16.452;2023-03-14T00:14:41;8.88;;;4.15;;
66353;SDS011;53150;48.296;16.452;2023-03-14T00:17:08;6.95;;;3.60;;
66353;SDS011;53150;48.296;16.452;2023-03-14T00:19:34;9.00;;;4.65;;
66353;SDS011;53150;48.296;16.452;2023-03-14T00:22:00;8.10;;;3.60;;
66353;SDS011;53150;48.296;16.452;2023-03-14T00:24:26;6.22;;;3.38;;
66353;SDS011;53150;48.296;16.452;2023-03-14T00:26:53;7.32;;;3.65;;
66353;SDS011;53150;48.296;16.452;2023-03-14T00:29:19;7.28;;;3.50;;
66353;SDS011;53150;48.296;16.452;2023-03-14T00:31:44;7.05;;;3.60;;
66353;SDS011;53150;48.296;16.452;2023-03-14T00:34:11;6.65;;;3.78;;
66353;SDS011;53150;48.296;16.452;2023-03-14T00:36:37;6.22;;;3.10;;
66353;SDS011;53150;48.296;16.452;2023-03-14T00:39:03;9.88;;;3.80;;
66353;SDS011;53150;48.296;16.452;2023-03-14T00:41:29;7.15;;;3.40;;
66353;SDS011;53150;48.296;16.452;2023-03-14T00:43:55;6.50;;;3.35;;
66353;SDS011;53150;48.296;16.452;2023-03-14T00:46:21;7.88;;;3.78;;
66353;SDS011;53150;48.296;16.452;2023-03-14T00:48:47;6.97;;;3.30;;
66353;SDS011;53150;48.296;16.452;2023-03-14T00:51:13;7.25;;;3.63;;
66353;SDS011;53150;48.296;16.452;2023-03-14T00:53:40;6.88;;;3.30;;
66353;SDS011;53150;48.296;16.452;2023-03-14T00:56:08;8.43;;;3.60;;
66353;SDS011;53150;48.296;16.452;2023-03-14T00:58:34;7.03;;;3.22;;
66353;SDS011;53150;48.296;16.452;2023-03-14T01:01:10;7.13;;;3.20;;
66353;SDS011;53150;48.296;16.452;2023-03-14T01:03:38;8.45;;;3.85;;
66353;SDS011;53150;48.296;16.452;2023-03-14T01:06:11;6.78;;;3.13;;
66353;SDS011;53150;48.296;16.452;2023-03-14T01:08:38;7.38;;;4.55;;
66353;SDS011;53150;48.296;16.452;2023-03-14T01:11:06;6.35;;;3.30;;
66353;SDS011;53150;48.296;16.452;2023-03-14T01:13:33;5.90;;;3.10;;
66353;SDS011;53150;48.296;16.452;2023-03-14T01:16:06;6.25;;;3.60;;
66353;SDS011;53150;48.296;16.452;2023-03-14T01:18:33;8.10;;;4.40;;
66353;SDS011;53150;48.296;16.452;2023-03-14T01:21:12;6.00;;;3.70;;
66353;SDS011;53150;48.296;16.452;2023-03-14T01:23:39;7.38;;;3.33;;
66353;SDS011;53150;48.296;16.452;2023-03-14T01:26:07;6.88;;;3.78;;
66353;SDS011;53150;48.296;16.452;2023-03-14T01:28:33;5.82;;;3.30;;
66353;SDS011;53150;48.296;16.452;2023-03-14T01:31:03;6.45;;;3.13;;
66353;SDS011;53150;48.296;16.452;2023-03-14T01:33:29;7.97;;;4.28;;
66353;SDS011;53150;48.296;16.452;2023-03-14T01:35:55;6.07;;;3.00;;
66353;SDS011;53150;48.296;16.452;2023-03-14T01:38:21;6.30;;;2.92;;
66353;SDS011;53150;48.296;16.452;2023-03-14T01:40:47;7.90;;;3.28;;
66353;SDS011;53150;48.296;16.452;2023-03-14T01:43:17;7.70;;;3.60;;
66353;SDS011;53150;48.296;16.452;2023-03-14T01:48:19;6.97;;;3.40;;
66353;SDS011;53150;48.296;16.452;2023-03-14T01:50:45;6.68;;;3.20;;
66353;SDS011;53150;48.296;16.452;2023-03-14T01:53:11;7.40;;;3.53;;
66353;SDS011;53150;48.296;16.452;2023-03-14T01:58:33;5.80;;;3.17;;
66353;SDS011;53150;48.296;16.452;2023-03-14T02:00:59;7.15;;;3.63;;
66353;SDS011;53150;48.296;16.452;2023-03-14T02:03:27;7.50;;;3.92;;
66353;SDS011;53150;48.296;16.452;2023-03-14T02:05:53;7.88;;;3.67;;
66353;SDS011;53150;48.296;16.452;2023-03-14T02:08:21;7.05;;;3.33;;
66353;SDS011;53150;48.296;16.452;2023-03-14T02:10:48;6.15;;;3.17;;
66353;SDS011;53150;48.296;16.452;2023-03-14T02:13:15;6.15;;;3.15;;
66353;SDS011;53150;48.296;16.452;2023-03-14T02:15:41;6.78;;;3.22;;
66353;SDS011;53150;48.296;16.452;2023-03-14T02:18:07;7.82;;;2.72;;
66353;SDS011;53150;48.296;16.452;2023-03-14T02:23:00;6.32;;;3.28;;
66353;SDS011;53150;48.296;16.452;2023-03-14T02:25:40;7.03;;;3.15;;
66353;SDS011;53150;48.296;16.452;2023-03-14T02:28:09;8.98;;;3.42;;
66353;SDS011;53150;48.296;16.452;2023-03-14T02:30:35;9.63;;;2.95;;
66353;SDS011;53150;48.296;16.452;2023-03-14T02:35:28;8.73;;;3.50;;
66353;SDS011;53150;48.296;16.452;2023-03-14T02:37:57;6.55;;;2.97;;
66353;SDS011;53150;48.296;16.452;2023-03-14T02:40:25;7.47;;;3.40;;
66353;SDS011;53150;48.296;16.452;2023-03-14T02:42:51;6.00;;;3.40;;
66353;SDS011;53150;48.296;16.452;2023-03-14T02:47:44;6.38;;;2.90;;
66353;SDS011;53150;48.296;16.452;2023-03-14T02:50:13;6.63;;;3.50;;
66353;SDS011;53150;48.296;16.452;2023-03-14T02:52:40;7.63;;;3.40;;
66353;SDS011;53150;48.296;16.452;2023-03-14T02:55:06;6.88;;;2.58;;
66353;SDS011;53150;48.296;16.452;2023-03-14T02:57:32;7.68;;;3.30;;
66353;SDS011;53150;48.296;16.452;2023-03-14T02:59:58;9.93;;;3.58;;
66353;SDS011;53150;48.296;16.452;2023-03-14T03:02:25;6.10;;;3.22;;
66353;SDS011;53150;48.296;16.452;2023-03-14T03:04:51;5.50;;;3.00;;
66353;SDS011;53150;48.296;16.452;2023-03-14T03:07:17;5.97;;;3.10;;
66353;SDS011;53150;48.296;16.452;2023-03-14T03:09:44;7.07;;;3.83;;
66353;SDS011;53150;48.296;16.452;2023-03-14T03:12:10;6.82;;;3.40;;
66353;SDS011;53150;48.296;16.452;2023-03-14T03:14:36;5.65;;;3.33;;
66353;SDS011;53150;48.296;16.452;2023-03-14T03:17:04;6.63;;;3.58;;
66353;SDS011;53150;48.296;16.452;2023-03-14T03:19:31;6.80;;;3.53;;
66353;SDS011;53150;48.296;16.452;2023-03-14T03:21:57;7.47;;;3.40;;
66353;SDS011;53150;48.296;16.452;2023-03-14T03:24:24;7.43;;;3.40;;
66353;SDS011;53150;48.296;16.452;2023-03-14T03:26:50;7.00;;;2.83;;
66353;SDS011;53150;48.296;16.452;2023-03-14T03:29:16;6.50;;;3.38;;
66353;SDS011;53150;48.296;16.452;2023-03-14T03:31:42;5.32;;;2.80;;
66353;SDS011;53150;48.296;16.452;2023-03-14T03:34:10;7.35;;;3.40;;
66353;SDS011;53150;48.296;16.452;2023-03-14T03:36:36;6.15;;;3.20;;
66353;SDS011;53150;48.296;16.452;2023-03-14T03:39:02;8.23;;;3.75;;
66353;SDS011;53150;48.296;16.452;2023-03-14T03:41:28;6.55;;;3.30;;
66353;SDS011;53150;48.296;16.452;2023-03-14T03:43:54;8.90;;;3.75;;
66353;SDS011;53150;48.296;16.452;2023-03-14T03:46:20;6.45;;;3.97;;
66353;SDS011;53150;48.296;16.452;2023-03-14T03:48:46;7.32;;;4.38;;
66353;SDS011;53150;48.296;16.452;2023-03-14T03:51:13;9.52;;;4.57;;
66353;SDS011;53150;48.296;16.452;2023-03-14T03:53:40;7.10;;;4.18;;
66353;SDS011;53150;48.296;16.452;2023-03-14T03:56:06;9.65;;;5.15;;
66353;SDS011;53150;48.296;16.452;2023-03-14T03:58:32;9.52;;;4.85;;
66353;SDS011;53150;48.296;16.452;2023-03-14T04:00:58;8.00;;;4.70;;
66353;SDS011;53150;48.296;16.452;2023-03-14T04:03:24;8.80;;;5.13;;
66353;SDS011;53150;48.296;16.452;2023-03-14T04:05:57;8.88;;;4.80;;
66353;SDS011;53150;48.296;16.452;2023-03-14T04:08:24;9.20;;;5.40;;
66353;SDS011;53150;48.296;16.452;2023-03-14T04:10:53;7.78;;;5.43;;
66353;SDS011;53150;48.296;16.452;2023-03-14T04:13:19;10.93;;;5.88;;
66353;SDS011;53150;48.296;16.452;2023-03-14T04:15:45;9.25;;;6.57;;
66353;SDS011;53150;48.296;16.452;2023-03-14T04:18:11;10.55;;;5.53;;
66353;SDS011;53150;48.296;16.452;2023-03-14T04:20:37;8.48;;;5.15;;
66353;SDS011;53150;48.296;16.452;2023-03-14T04:23:03;8.40;;;5.60;;
66353;SDS011;53150;48.296;16.452;2023-03-14T04:25:29;10.32;;;5.85;;
66353;SDS011;53150;48.296;16.452;2023-03-14T04:27:55;8.82;;;5.55;;
66353;SDS011;53150;48.296;16.452;2023-03-14T04:30:21;9.63;;;5.80;;
66353;SDS011;53150;48.296;16.452;2023-03-14T04:32:47;9.63;;;5.57;;
66353;SDS011;53150;48.296;16.452;2023-03-14T04:35:13;9.52;;;5.65;;
66353;SDS011;53150;48.296;16.452;2023-03-14T04:37:39;8.82;;;5.43;;
66353;SDS011;53150;48.296;16.452;2023-03-14T04:40:07;8.85;;;5.85;;
66353;SDS011;53150;48.296;16.452;2023-03-14T04:42:33;9.43;;;5.70;;
66353;SDS011;53150;48.296;16.452;2023-03-14T04:44:59;11.85;;;5.85;;
66353;SDS011;53150;48.296;16.452;2023-03-14T04:47:29;10.40;;;5.80;;
66353;SDS011;53150;48.296;16.452;2023-03-14T04:49:55;9.05;;;5.75;;
66353;SDS011;53150;48.296;16.452;2023-03-14T04:52:21;9.30;;;5.75;;
66353;SDS011;53150;48.296;16.452;2023-03-14T04:54:47;9.43;;;5.65;;
66353;SDS011;53150;48.296;16.452;2023-03-14T04:57:13;8.82;;;5.70;;
66353;SDS011;53150;48.296;16.452;2023-03-14T04:59:39;8.93;;;5.60;;
66353;SDS011;53150;48.296;16.452;2023-03-14T05:02:05;11.05;;;6.38;;
66353;SDS011;53150;48.296;16.452;2023-03-14T05:04:31;11.27;;;6.47;;
66353;SDS011;53150;48.296;16.452;2023-03-14T05:06:58;9.68;;;6.05;;
66353;SDS011;53150;48.296;16.452;2023-03-14T05:09:25;9.00;;;5.78;;
66353;SDS011;53150;48.296;16.452;2023-03-14T05:11:51;11.50;;;6.35;;
66353;SDS011;53150;48.296;16.452;2023-03-14T05:14:17;8.80;;;6.05;;
66353;SDS011;53150;48.296;16.452;2023-03-14T05:16:43;10.18;;;5.82;;
66353;SDS011;53150;48.296;16.452;2023-03-14T05:19:09;12.40;;;6.90;;
66353;SDS011;53150;48.296;16.452;2023-03-14T05:21:36;11.02;;;6.60;;
66353;SDS011;53150;48.296;16.452;2023-03-14T05:24:02;10.77;;;5.65;;
66353;SDS011;53150;48.296;16.452;2023-03-14T05:26:28;12.15;;;6.93;;
66353;SDS011;53150;48.296;16.452;2023-03-14T05:28:54;10.43;;;6.25;;
66353;SDS011;53150;48.296;16.452;2023-03-14T05:31:20;12.30;;;7.18;;
66353;SDS011;53150;48.296;16.452;2023-03-14T05:33:46;13.13;;;8.18;;
66353;SDS011;53150;48.296;16.452;2023-03-14T05:36:12;12.20;;;7.55;;
66353;SDS011;53150;48.296;16.452;2023-03-14T05:38:38;11.43;;;6.75;;
66353;SDS011;53150;48.296;16.452;2023-03-14T05:41:04;14.93;;;7.70;;
66353;SDS011;53150;48.296;16.452;2023-03-14T05:43:30;11.95;;;7.30;;
66353;SDS011;53150;48.296;16.452;2023-03-14T05:45:56;13.63;;;7.15;;
66353;SDS011;53150;48.296;16.452;2023-03-14T05:48:22;11.27;;;7.05;;
66353;SDS011;53150;48.296;16.452;2023-03-14T05:50:53;11.45;;;6.75;;
66353;SDS011;53150;48.296;16.452;2023-03-14T05:53:19;11.27;;;6.80;;
66353;SDS011;53150;48.296;16.452;2023-03-14T05:55:46;13.82;;;7.43;;
66353;SDS011;53150;48.296;16.452;2023-03-14T05:58:12;10.60;;;6.28;;
66353;SDS011;53150;48.296;16.452;2023-03-14T06:00:37;11.07;;;6.20;;
66353;SDS011;53150;48.296;16.452;2023-03-14T06:03:05;11.63;;;7.53;;
66353;SDS011;53150;48.296;16.452;2023-03-14T06:05:31;16.33;;;8.13;;
66353;SDS011;53150;48.296;16.452;2023-03-14T06:07:57;12.98;;;8.65;;
66353;SDS011;53150;48.296;16.452;2023-03-14T06:10:23;13.30;;;7.22;;
66353;SDS011;53150;48.296;16.452;2023-03-14T06:12:49;16.02;;;8.60;;
66353;SDS011;53150;48.296;16.452;2023-03-14T06:15:15;11.80;;;8.13;;
66353;SDS011;53150;48.296;16.452;2023-03-14T06:17:41;14.65;;;8.05;;
66353;SDS011;53150;48.296;16.452;2023-03-14T06:20:07;13.05;;;8.10;;
66353;SDS011;53150;48.296;16.452;2023-03-14T06:22:33;16.20;;;9.35;;
66353;SDS011;53150;48.296;16.452;2023-03-14T06:25:00;13.48;;;8.52;;
66353;SDS011;53150;48.296;16.452;2023-03-14T06:27:26;16.08;;;9.77;;
66353;SDS011;53150;48.296;16.452;2023-03-14T06:29:52;11.50;;;7.53;;
66353;SDS011;53150;48.296;16.452;2023-03-14T06:32:18;14.80;;;8.63;;
66353;SDS011;53150;48.296;16.452;2023-03-14T06:34:45;11.35;;;7.22;;
66353;SDS011;53150;48.296;16.452;2023-03-14T06:37:11;12.18;;;7.05;;
66353;SDS011;53150;48.296;16.452;2023-03-14T06:39:37;12.52;;;8.30;;
66353;SDS011;53150;48.296;16.452;2023-03-14T06:42:03;16.60;;;8.15;;
66353;SDS011;53150;48.296;16.452;2023-03-14T06:44:30;12.75;;;7.55;;
66353;SDS011;53150;48.296;16.452;2023-03-14T06:46:56;14.18;;;8.50;;
66353;SDS011;53150;48.296;16.452;2023-03-14T06:49:22;14.88;;;8.40;;
66353;SDS011;53150;48.296;16.452;2023-03-14T06:51:48;11.57;;;8.27;;
66353;SDS011;53150;48.296;16.452;2023-03-14T06:54:14;13.20;;;9.35;;
66353;SDS011;53150;48.296;16.452;2023-03-14T06:56:40;15.00;;;7.70;;
66353;SDS011;53150;48.296;16.452;2023-03-14T06:59:06;14.10;;;8.00;;
66353;SDS011;53150;48.296;16.452;2023-03-14T07:01:32;16.15;;;8.48;;
66353;SDS011;53150;48.296;16.452;2023-03-14T07:04:00;14.63;;;7.80;;
66353;SDS011;53150;48.296;16.452;2023-03-14T07:06:26;22.05;;;12.82;;
66353;SDS011;53150;48.296;16.452;2023-03-14T07:08:54;15.60;;;8.48;;
66353;SDS011;53150;48.296;16.452;2023-03-14T07:11:20;13.05;;;8.77;;
66353;SDS011;53150;48.296;16.452;2023-03-14T07:13:46;16.17;;;8.20;;
66353;SDS011;53150;48.296;16.452;2023-03-14T07:16:12;11.32;;;6.97;;
66353;SDS011;53150;48.296;16.452;2023-03-14T07:18:38;13.20;;;6.68;;
66353;SDS011;53150;48.296;16.452;2023-03-14T07:21:05;13.38;;;7.55;;
66353;SDS011;53150;48.296;16.452;2023-03-14T07:23:31;13.35;;;6.90;;
66353;SDS011;53150;48.296;16.452;2023-03-14T07:25:57;12.50;;;6.55;;
66353;SDS011;53150;48.296;16.452;2023-03-14T07:28:23;17.75;;;12.10;;
66353;SDS011;53150;48.296;16.452;2023-03-14T07:30:50;13.57;;;7.80;;
66353;SDS011;53150;48.296;16.452;2023-03-14T07:33:16;16.13;;;9.57;;
66353;SDS011;53150;48.296;16.452;2023-03-14T07:35:42;12.50;;;7.45;;
66353;SDS011;53150;48.296;16.452;2023-03-14T07:38:08;16.40;;;10.30;;
66353;SDS011;53150;48.296;16.452;2023-03-14T07:40:34;11.32;;;7.85;;
66353;SDS011;53150;48.296;16.452;2023-03-14T07:43:00;11.25;;;7.32;;
66353;SDS011;53150;48.296;16.452;2023-03-14T07:45:26;9.95;;;7.00;;
66353;SDS011;53150;48.296;16.452;2023-03-14T07:47:52;10.70;;;6.57;;
66353;SDS011;53150;48.296;16.452;2023-03-14T07:50:22;12.10;;;7.15;;
66353;SDS011;53150;48.296;16.452;2023-03-14T07:52:48;14.13;;;7.05;;
66353;SDS011;53150;48.296;16.452;2023-03-14T07:55:14;12.38;;;7.30;;
66353;SDS011;53150;48.296;16.452;2023-03-14T07:57:40;11.90;;;6.78;;
66353;SDS011;53150;48.296;16.452;2023-03-14T08:00:07;13.18;;;7.15;;
66353;SDS011;53150;48.296;16.452;2023-03-14T08:02:33;11.90;;;6.93;;
66353;SDS011;53150;48.296;16.452;2023-03-14T08:05:01;9.85;;;6.57;;
66353;SDS011;53150;48.296;16.452;2023-03-14T08:07:27;9.88;;;5.40;;
66353;SDS011;53150;48.296;16.452;2023-03-14T08:09:53;10.40;;;6.07;;
66353;SDS011;53150;48.296;16.452;2023-03-14T08:12:19;11.50;;;5.68;;
66353;SDS011;53150;48.296;16.452;2023-03-14T08:14:45;12.65;;;5.72;;
66353;SDS011;53150;48.296;16.452;2023-03-14T08:17:11;15.13;;;7.47;;
66353;SDS011;53150;48.296;16.452;2023-03-14T08:19:37;11.57;;;6.55;;
66353;SDS011;53150;48.296;16.452;2023-03-14T08:22:03;17.83;;;7.90;;
66353;SDS011;53150;48.296;16.452;2023-03-14T08:24:29;10.88;;;6.63;;
66353;SDS011;53150;48.296;16.452;2023-03-14T08:26:56;11.95;;;6.35;;
66353;SDS011;53150;48.296;16.452;2023-03-14T08:29:22;9.07;;;5.80;;
66353;SDS011;53150;48.296;16.452;2023-03-14T08:31:48;10.05;;;6.05;;
66353;SDS011;53150;48.296;16.452;2023-03-14T08:34:14;11.05;;;6.85;;
66353;SDS011;53150;48.296;16.452;2023-03-14T08:36:40;9.88;;;6.15;;
66353;SDS011;53150;48.296;16.452;2023-03-14T08:39:06;9.98;;;6.18;;
66353;SDS011;53150;48.296;16.452;2023-03-14T08:41:33;9.43;;;5.95;;
66353;SDS011;53150;48.296;16.452;2023-03-14T08:44:05;8.43;;;5.28;;
66353;SDS011;53150;48.296;16.452;2023-03-14T08:46:31;9.10;;;5.57;;
66353;SDS011;53150;48.296;16.452;2023-03-14T08:48:57;8.95;;;4.70;;
66353;SDS011;53150;48.296;16.452;2023-03-14T08:51:23;7.45;;;4.60;;
66353;SDS011;53150;48.296;16.452;2023-03-14T08:53:49;8.77;;;4.63;;
66353;SDS011;53150;48.296;16.452;2023-03-14T08:56:15;8.48;;;4.30;;
66353;SDS011;53150;48.296;16.452;2023-03-14T08:58:41;8.48;;;4.15;;
66353;SDS011;53150;48.296;16.452;2023-03-14T09:01:08;6.82;;;3.58;;
66353;SDS011;53150;48.296;16.452;2023-03-14T09:03:34;10.85;;;4.22;;
66353;SDS011;53150;48.296;16.452;2023-03-14T09:06:01;9.13;;;4.30;;
66353;SDS011;53150;48.296;16.452;2023-03-14T09:08:28;11.30;;;4.07;;
66353;SDS011;53150;48.296;16.452;2023-03-14T09:10:54;11.23;;;5.30;;
66353;SDS011;53150;48.296;16.452;2023-03-14T09:13:20;7.95;;;4.72;;
66353;SDS011;53150;48.296;16.452;2023-03-14T09:15:50;10.13;;;5.95;;
66353;SDS011;53150;48.296;16.452;2023-03-14T09:18:16;10.50;;;5.05;;
66353;SDS011;53150;48.296;16.452;2023-03-14T09:20:42;8.75;;;6.07;;
66353;SDS011;53150;48.296;16.452;2023-03-14T09:23:08;9.48;;;4.25;;
66353;SDS011;53150;48.296;16.452;2023-03-14T09:25:34;8.55;;;4.43;;
66353;SDS011;53150;48.296;16.452;2023-03-14T09:28:00;8.77;;;4.70;;
66353;SDS011;53150;48.296;16.452;2023-03-14T09:30:26;8.10;;;4.07;;
66353;SDS011;53150;48.296;16.452;2023-03-14T09:32:52;7.68;;;4.28;;
66353;SDS011;53150;48.296;16.452;2023-03-14T09:35:18;8.18;;;4.43;;
66353;SDS011;53150;48.296;16.452;2023-03-14T09:37:44;7.40;;;4.47;;
66353;SDS011;53150;48.296;16.452;2023-03-14T09:40:12;8.23;;;3.80;;
66353;SDS011;53150;48.296;16.452;2023-03-14T09:42:38;8.80;;;4.00;;
66353;SDS011;53150;48.296;16.452;2023-03-14T09:45:07;8.10;;;5.53;;
66353;SDS011;53150;48.296;16.452;2023-03-14T09:47:35;11.20;;;4.72;;
66353;SDS011;53150;48.296;16.452;2023-03-14T09:50:02;10.88;;;5.20;;
66353;SDS011;53150;48.296;16.452;2023-03-14T09:52:32;10.27;;;5.28;;
66353;SDS011;53150;48.296;16.452;2023-03-14T09:55:12;8.05;;;4.10;;
66353;SDS011;53150;48.296;16.452;2023-03-14T09:57:39;10.43;;;4.60;;
66353;SDS011;53150;48.296;16.452;2023-03-14T10:00:12;9.90;;;4.03;;
66353;SDS011;53150;48.296;16.452;2023-03-14T10:05:07;9.52;;;4.63;;
66353;SDS011;53150;48.296;16.452;2023-03-14T10:07:33;8.30;;;4.22;;
66353;SDS011;53150;48.296;16.452;2023-03-14T10:09:59;9.25;;;5.00;;
66353;SDS011;53150;48.296;16.452;2023-03-14T10:12:32;9.07;;;4.88;;
66353;SDS011;53150;48.296;16.452;2023-03-14T10:15:02;10.27;;;4.70;;
66353;SDS011;53150;48.296;16.452;2023-03-14T10:17:28;11.25;;;5.03;;
66353;SDS011;53150;48.296;16.452;2023-03-14T10:19:56;15.18;;;6.28;;
66353;SDS011;53150;48.296;16.452;2023-03-14T10:22:31;8.63;;;5.32;;
66353;SDS011;53150;48.296;16.452;2023-03-14T10:25:06;8.90;;;5.43;;
66353;SDS011;53150;48.296;16.452;2023-03-14T10:27:35;10.18;;;5.38;;
66353;SDS011;53150;48.296;16.452;2023-03-14T10:30:04;11.15;;;5.57;;
66353;SDS011;53150;48.296;16.452;2023-03-14T10:32:38;10.18;;;4.80;;
66353;SDS011;53150;48.296;16.452;2023-03-14T10:37:56;13.38;;;7.43;;
66353;SDS011;53150;48.296;16.452;2023-03-14T10:42:54;27.90;;;13.70;;
66353;SDS011;53150;48.296;16.452;2023-03-14T10:45:38;25.83;;;11.55;;
66353;SDS011;53150;48.296;16.452;2023-03-14T10:48:21;26.25;;;10.90;;
66353;SDS011;53150;48.296;16.452;2023-03-14T10:50:48;19.92;;;8.93;;
66353;SDS011;53150;48.296;16.452;2023-03-14T10:53:16;8.35;;;4.45;;
66353;SDS011;53150;48.296;16.452;2023-03-14T10:55:43;10.68;;;4.15;;
66353;SDS011;53150;48.296;16.452;2023-03-14T10:58:26;5.68;;;2.80;;
66353;SDS011;53150;48.296;16.452;2023-03-14T11:01:05;3.28;;;1.42;;
66353;SDS011;53150;48.296;16.452;2023-03-14T11:03:33;3.22;;;0.77;;
66353;SDS011;53150;48.296;16.452;2023-03-14T11:11:22;4.00;;;1.23;;
66353;SDS011;53150;48.296;16.452;2023-03-14T11:18:48;1.88;;;0.68;;
66353;SDS011;53150;48.296;16.452;2023-03-14T11:26:46;2.38;;;0.80;;
66353;SDS011;53150;48.296;16.452;2023-03-14T11:29:23;1.83;;;0.68;;
66353;SDS011;53150;48.296;16.452;2023-03-14T11:31:52;6.00;;;1.48;;
66353;SDS011;53150;48.296;16.452;2023-03-14T11:34:27;6.35;;;2.42;;
66353;SDS011;53150;48.296;16.452;2023-03-14T11:37:01;1.40;;;0.60;;
66353;SDS011;53150;48.296;16.452;2023-03-14T11:39:39;5.35;;;2.55;;
66353;SDS011;53150;48.296;16.452;2023-03-14T11:42:10;6.35;;;4.43;;
66353;SDS011;53150;48.296;16.452;2023-03-14T11:44:37;3.10;;;1.00;;
66353;SDS011;53150;48.296;16.452;2023-03-14T11:47:12;1.88;;;0.60;;
66353;SDS011;53150;48.296;16.452;2023-03-14T11:49:56;7.63;;;3.17;;
66353;SDS011;53150;48.296;16.452;2023-03-14T11:52:37;4.82;;;1.50;;
66353;SDS011;53150;48.296;16.452;2023-03-14T11:55:12;3.13;;;1.20;;
66353;SDS011;53150;48.296;16.452;2023-03-14T11:57:41;4.82;;;2.33;;
66353;SDS011;53150;48.296;16.452;2023-03-14T12:10:24;7.03;;;0.80;;
66353;SDS011;53150;48.296;16.452;2023-03-14T12:12:50;4.53;;;1.90;;
66353;SDS011;53150;48.296;16.452;2023-03-14T12:15:21;3.13;;;0.90;;
66353;SDS011;53150;48.296;16.452;2023-03-14T12:17:52;3.33;;;1.08;;
66353;SDS011;53150;48.296;16.452;2023-03-14T12:20:20;1.50;;;0.45;;
66353;SDS011;53150;48.296;16.452;2023-03-14T12:22:46;2.40;;;0.77;;
66353;SDS011;53150;48.296;16.452;2023-03-14T12:30:16;2.25;;;0.70;;
66353;SDS011;53150;48.296;16.452;2023-03-14T12:33:08;3.17;;;0.60;;
66353;SDS011;53150;48.296;16.452;2023-03-14T12:38:08;5.25;;;0.90;;
66353;SDS011;53150;48.296;16.452;2023-03-14T12:40:37;5.10;;;0.90;;
66353;SDS011;53150;48.296;16.452;2023-03-14T12:43:20;3.13;;;0.70;;
66353;SDS011;53150;48.296;16.452;2023-03-14T12:46:09;3.30;;;0.80;;
66353;SDS011;53150;48.296;16.452;2023-03-14T12:48:39;1.00;;;0.40;;
66353;SDS011;53150;48.296;16.452;2023-03-14T12:51:11;1.17;;;0.45;;
66353;SDS011;53150;48.296;16.452;2023-03-14T12:58:42;1.70;;;0.50;;
66353;SDS011;53150;48.296;16.452;2023-03-14T13:01:15;5.13;;;1.05;;
66353;SDS011;53150;48.296;16.452;2023-03-14T13:03:52;2.83;;;0.85;;
66353;SDS011;53150;48.296;16.452;2023-03-14T13:11:47;2.30;;;1.00;;
66353;SDS011;53150;48.296;16.452;2023-03-14T13:14:13;1.08;;;0.40;;
66353;SDS011;53150;48.296;16.452;2023-03-14T13:16:40;1.20;;;0.45;;
66353;SDS011;53150;48.296;16.452;2023-03-14T13:19:11;1.75;;;0.60;;
66353;SDS011;53150;48.296;16.452;2023-03-14T13:21:39;1.83;;;0.55;;
66353;SDS011;53150;48.296;16.452;2023-03-14T13:24:07;2.03;;;0.50;;
66353;SDS011;53150;48.296;16.452;2023-03-14T13:26:35;6.60;;;1.00;;
66353;SDS011;53150;48.296;16.452;2023-03-14T13:29:15;3.05;;;0.68;;
66353;SDS011;53150;48.296;16.452;2023-03-14T13:31:45;1.48;;;0.60;;
66353;SDS011;53150;48.296;16.452;2023-03-14T13:34:12;2.20;;;0.70;;
66353;SDS011;53150;48.296;16.452;2023-03-14T13:36:38;2.58;;;0.80;;
66353;SDS011;53150;48.296;16.452;2023-03-14T13:39:06;1.40;;;0.50;;
66353;SDS011;53150;48.296;16.452;2023-03-14T13:41:37;2.80;;;0.65;;
66353;SDS011;53150;48.296;16.452;2023-03-14T13:44:05;3.08;;;1.00;;
66353;SDS011;53150;48.296;16.452;2023-03-14T13:46:35;2.75;;;0.95;;
66353;SDS011;53150;48.296;16.452;2023-03-14T13:49:03;1.58;;;0.70;;
66353;SDS011;53150;48.296;16.452;2023-03-14T13:51:29;2.40;;;0.57;;
66353;SDS011;53150;48.296;16.452;2023-03-14T13:53:58;2.45;;;0.80;;
66353;SDS011;53150;48.296;16.452;2023-03-14T13:56:26;0.85;;;0.30;;
66353;SDS011;53150;48.296;16.452;2023-03-14T13:58:53;1.10;;;0.43;;
66353;SDS011;53150;48.296;16.452;2023-03-14T14:03:46;1.80;;;0.40;;
66353;SDS011;53150;48.296;16.452;2023-03-14T14:08:52;0.95;;;0.30;;
66353;SDS011;53150;48.296;16.452;2023-03-14T14:11:21;6.78;;;1.13;;
66353;SDS011;53150;48.296;16.452;2023-03-14T14:13:48;3.33;;;0.73;;
66353;SDS011;53150;48.296;16.452;2023-03-14T14:16:15;0.77;;;0.40;;
66353;SDS011;53150;48.296;16.452;2023-03-14T14:18:42;1.75;;;0.60;;
66353;SDS011;53150;48.296;16.452;2023-03-14T14:21:08;2.40;;;0.50;;
66353;SDS011;53150;48.296;16.452;2023-03-14T14:23:35;1.98;;;0.50;;
66353;SDS011;53150;48.296;16.452;2023-03-14T14:26:03;2.30;;;0.52;;
66353;SDS011;53150;48.296;16.452;2023-03-14T14:28:31;2.08;;;0.60;;
66353;SDS011;53150;48.296;16.452;2023-03-14T14:33:26;2.83;;;1.00;;
66353;SDS011;53150;48.296;16.452;2023-03-14T14:35:56;2.30;;;0.77;;
66353;SDS011;53150;48.296;16.452;2023-03-14T14:38:23;2.17;;;0.90;;
66353;SDS011;53150;48.296;16.452;2023-03-14T14:40:50;3.72;;;1.20;;
66353;SDS011;53150;48.296;16.452;2023-03-14T14:43:19;2.65;;;0.80;;
66353;SDS011;53150;48.296;16.452;2023-03-14T14:45:47;2.47;;;0.85;;
66353;SDS011;53150;48.296;16.452;2023-03-14T14:48:14;1.42;;;0.60;;
66353;SDS011;53150;48.296;16.452;2023-03-14T14:53:29;5.68;;;2.47;;
66353;SDS011;53150;48.296;16.452;2023-03-14T14:56:00;3.95;;;0.75;;
66353;SDS011;53150;48.296;16.452;2023-03-14T14:58:30;4.30;;;1.30;;
66353;SDS011;53150;48.296;16.452;2023-03-14T15:01:02;4.13;;;1.70;;
66353;SDS011;53150;48.296;16.452;2023-03-14T15:03:29;3.53;;;1.30;;
66353;SDS011;53150;48.296;16.452;2023-03-14T15:05:56;3.85;;;1.70;;
66353;SDS011;53150;48.296;16.452;2023-03-14T15:08:22;2.65;;;0.90;;
66353;SDS011;53150;48.296;16.452;2023-03-14T15:10:49;3.20;;;0.90;;
66353;SDS011;53150;48.296;16.452;2023-03-14T15:13:15;3.83;;;1.15;;
66353;SDS011;53150;48.296;16.452;2023-03-14T15:15:41;3.10;;;1.05;;
66353;SDS011;53150;48.296;16.452;2023-03-14T15:18:10;4.60;;;1.23;;
66353;SDS011;53150;48.296;16.452;2023-03-14T15:20:38;3.30;;;1.05;;
66353;SDS011;53150;48.296;16.452;2023-03-14T15:23:07;3.95;;;1.30;;
66353;SDS011;53150;48.296;16.452;2023-03-14T15:25:35;4.90;;;2.00;;
66353;SDS011;53150;48.296;16.452;2023-03-14T15:28:02;5.25;;;1.85;;
66353;SDS011;53150;48.296;16.452;2023-03-14T15:30:28;3.92;;;1.70;;
66353;SDS011;53150;48.296;16.452;2023-03-14T15:32:54;4.38;;;1.52;;
66353;SDS011;53150;48.296;16.452;2023-03-14T15:35:20;6.43;;;1.90;;
66353;SDS011;53150;48.296;16.452;2023-03-14T15:37:46;4.90;;;2.00;;
66353;SDS011;53150;48.296;16.452;2023-03-14T15:40:13;8.20;;;3.20;;
66353;SDS011;53150;48.296;16.452;2023-03-14T15:42:40;7.18;;;3.70;;
66353;SDS011;53150;48.296;16.452;2023-03-14T15:45:07;6.50;;;2.63;;
66353;SDS011;53150;48.296;16.452;2023-03-14T15:47:33;5.90;;;2.22;;
66353;SDS011;53150;48.296;16.452;2023-03-14T15:49:59;4.78;;;2.30;;